AirNav   Duncan Aviation - Near you to keep you flying
 
 1300 users online  

37TS Jlinn Airport
Greenville, Texas, USA

GOING TO GREENVILLE?


FAA INFORMATION EFFECTIVE 19 MAY 2022

Location

FAA Identifier: 37TS
Lat/Long: 32-59-26.4270N 096-02-23.8940W
32-59.440450N 096-02.398233W
32.9906742,-96.0399706
(estimated)
Elevation: 460 ft. / 140 m (estimated)
Variation: 07E (1980)
From city: 10 miles SE of GREENVILLE, TX
Time zone: UTC -5 (UTC -6 during Standard Time)
Zip code: 75474

Airport Operations

Airport use: Private use, PERSONAL USE.
Activation date: 11/1986
Control tower: no
ARTCC: FORT WORTH CENTER
FSS: FORT WORTH FLIGHT SERVICE STATION
Attendance: UNATNDD
Segmented circle: no

Airport Communications

WX AWOS-3 at GVT (5 nm N): 133.425 (903-455-7703)

Nearby radio navigation aids

VOR radial/distance  VOR name  Freq  Var
SLRr235/27.9SULPHUR SPRINGS VOR/DME109.0008E
BYPr157/34.2BONHAM VORTAC114.6006E

 
NDB name  Hdg/Dist  Freq  Var  ID
MESQUITE063/26.924803EPQF .--. --.- ..-.

Airport Services

Runway Information

Runway 18/36

Dimensions: 1900 x 100 ft. / 579 x 30 m
Surface: turf
RUNWAY 18  RUNWAY 36
Traffic pattern: leftleft
Obstructions: none30 ft. pline

Airport Ownership and Management from official FAA records

Ownership: Privately-owned
Owner: CHIP HARDING
2042 CR 3517
QUINLAN, TX 75474
Phone 972-222-3546
Manager: CHIP HARDING
2042 CR 3517
QUINLAN, TX 75474
Phone 972-222-3546
CHIP@MESQUITEAVIATION.COM

Additional Remarks

FOR CD CTC FORT WORTH ARTCC AT 817-858-7584.

Instrument Procedures

There are no published instrument procedures at 37TS.

Some nearby airports with instrument procedures:

KGVT - Majors Airport (5 nm N)
7F3 - Caddo Mills Municipal Airport (11 nm W)
2F7 - Commerce Municipal Airport (20 nm N)
F46 - Ralph M Hall/Rockwall Municipal Airport (20 nm W)
KTRL - Terrell Municipal Airport (20 nm SW)
 
Loc | Ops | Rwys | IFR | FBO | Links
Com | Nav | Svcs | Stats | Notes

City of Fort Worth
 
Area around 37TS (Jlinn Airport)
 
Road maps at: MapQuest Bing Google
 
Aerial photo
No photo
 
Sectional chart

 
Airport distance calculator
Flying to Jlinn Airport? Find the distance to fly.

From to 37TS

Sunrise and sunset
Times for 27-May-2022
 Local
(UTC-5)
 Zulu
(UTC)
Morning civil twilight05:5110:51
Sunrise06:1911:19
Sunset20:2301:23
Evening civil twilight20:5101:51

Current date and time
Zulu (UTC)  27-May-2022 16:58:33
Local (UTC-5)  27-May-2022 11:58:33
 
METAR
KGVT 
5nm N 
271635Z AUTO 01005KT 10SM CLR 26/10 A3007 RMK AO2 TSNO T02620102
TAF
KDAL 
42nm W 
271500Z 2715/2812 11005KT P6SM SKC
KTYR 
49nm SE 
271122Z 2712/2812 VRB03KT P6SM SKC FM271500 33007KT P6SM SKC FM280000 15003KT P6SM SKC
KDFW 
49nm W 
271500Z 2715/2818 12005KT P6SM SKC
NOTAMs
Click for the latest NOTAMs
NOTAMs are issued by the DoD/FAA and will open in a separate window not controlled by AirNav.

 

 
 

Would you like to see your business listed on this page?

 If your business provides an interesting product or service to pilots, flight crews, aircraft, or users of the Jlinn Airport, you should consider listing it here.  To start the listing process, click on the button below
 
Add a business
 

Other Pages about Jlinn Airport

Update a link
 
Copyright © AirNav, LLC. All rights reserved. Privacy Policy  Contact